createdAt,value
2023-02-11T00:03:19.598Z,5.60
2023-02-11T00:07:21.278Z,5.60
2023-02-11T00:11:26.355Z,5.70
2023-02-11T00:15:28.000Z,5.70
2023-02-11T00:19:29.636Z,5.50
2023-02-11T00:23:31.314Z,5.50
2023-02-11T00:27:32.971Z,5.70
2023-02-11T00:31:34.968Z,5.70
2023-02-11T00:35:38.519Z,5.70
2023-02-11T00:39:40.196Z,5.80
2023-02-11T00:43:42.166Z,5.70
2023-02-11T00:47:43.835Z,5.70
2023-02-11T00:51:45.500Z,5.80
2023-02-11T00:55:47.362Z,5.80
2023-02-11T00:59:50.458Z,5.90
2023-02-11T01:03:52.162Z,6.00
2023-02-11T01:07:53.854Z,6.10
2023-02-11T01:11:55.673Z,6.00
2023-02-11T01:15:57.527Z,6.00
2023-02-11T01:19:59.242Z,6.00
2023-02-11T01:24:00.957Z,6.00
2023-02-11T01:28:02.674Z,6.00
2023-02-11T01:32:04.518Z,6.00
2023-02-11T01:36:07.153Z,6.00
2023-02-11T01:40:15.508Z,6.00
2023-02-11T01:44:37.387Z,6.10
2023-02-11T01:48:43.806Z,6.10
2023-02-11T01:52:47.799Z,6.10
2023-02-11T01:57:11.266Z,6.10
2023-02-11T02:01:17.052Z,6.10
2023-02-11T02:05:40.079Z,6.10
2023-02-11T02:09:48.112Z,6.10
2023-02-11T02:13:49.878Z,6.10
2023-02-11T02:18:07.429Z,6.20
2023-02-11T02:22:17.868Z,6.00
2023-02-11T02:26:44.268Z,6.10
2023-02-11T02:31:00.572Z,6.10
2023-02-11T02:35:13.052Z,6.10
2023-02-11T02:39:20.380Z,6.10
2023-02-11T02:43:23.738Z,6.00
2023-02-11T02:47:25.455Z,6.10
2023-02-11T02:51:39.177Z,6.10
2023-02-11T02:56:18.443Z,6.10
2023-02-11T03:01:03.115Z,6.10
2023-02-11T03:05:29.120Z,6.10
2023-02-11T03:09:54.677Z,6.00
2023-02-11T03:13:58.463Z,6.00
2023-02-11T03:18:03.308Z,6.00
2023-02-11T03:22:10.403Z,6.00
2023-02-11T03:26:23.419Z,6.00
2023-02-11T03:30:38.929Z,6.00
2023-02-11T03:35:03.340Z,6.00
2023-02-11T03:39:06.576Z,6.00
2023-02-11T03:43:36.964Z,6.00
2023-02-11T03:47:41.437Z,5.90
2023-02-11T03:51:43.941Z,6.00
2023-02-11T03:55:47.947Z,6.00
2023-02-11T03:59:57.772Z,6.00
2023-02-11T04:03:59.429Z,6.00
2023-02-11T04:08:01.330Z,6.00
2023-02-11T04:12:03.335Z,6.00
2023-02-11T04:16:05.304Z,5.90
2023-02-11T04:20:07.864Z,5.90
2023-02-11T04:24:09.555Z,5.90
2023-02-11T04:28:11.283Z,6.00
2023-02-11T04:32:13.796Z,5.90
2023-02-11T04:36:15.473Z,5.90
2023-02-11T04:40:17.323Z,5.90
2023-02-11T04:44:18.992Z,5.90
2023-02-11T04:48:20.677Z,5.90
2023-02-11T04:52:22.397Z,5.90
2023-02-11T04:56:24.284Z,5.90
2023-02-11T05:00:26.076Z,5.90
2023-02-11T05:04:27.929Z,5.90
2023-02-11T05:08:29.960Z,5.80
2023-02-11T05:12:31.632Z,5.80
2023-02-11T05:16:33.608Z,5.90
2023-02-11T05:20:37.535Z,5.90
2023-02-11T05:24:39.278Z,5.90
2023-02-11T05:28:41.459Z,5.80
2023-02-11T05:32:43.194Z,5.80
2023-02-11T05:36:44.934Z,5.70
2023-02-11T05:40:46.667Z,5.70
2023-02-11T05:44:50.544Z,5.70
2023-02-11T05:48:52.719Z,5.60
2023-02-11T05:52:54.408Z,5.50
2023-02-11T05:56:56.383Z,5.50
2023-02-11T06:00:58.108Z,5.50
2023-02-11T06:05:00.004Z,5.50
2023-02-11T06:09:01.732Z,5.50
2023-02-11T06:13:03.541Z,5.50
2023-02-11T06:17:05.272Z,5.50
2023-02-11T06:21:08.819Z,5.50
2023-02-11T06:25:11.208Z,5.50
2023-02-11T06:29:13.876Z,5.50
2023-02-11T06:33:15.806Z,5.50
2023-02-11T06:37:17.516Z,5.50
2023-02-11T06:41:20.261Z,5.50
2023-02-11T06:45:21.995Z,5.50
2023-02-11T06:49:23.704Z,5.60
2023-02-11T06:53:25.381Z,5.50
2023-02-11T06:57:27.086Z,5.50
2023-02-11T07:01:28.819Z,5.60
2023-02-11T07:05:30.552Z,5.60
2023-02-11T07:09:32.481Z,5.60
2023-02-11T07:13:34.155Z,5.60
2023-02-11T07:17:36.131Z,5.60
2023-02-11T07:21:37.841Z,5.70
2023-02-11T07:25:39.518Z,5.60
2023-02-11T07:29:42.848Z,5.60
2023-02-11T07:33:45.803Z,5.60
2023-02-11T07:37:47.527Z,5.60
2023-02-11T07:41:49.308Z,5.70
2023-02-11T07:45:51.201Z,5.80
2023-02-11T07:49:56.207Z,5.80
2023-02-11T07:54:00.132Z,5.80
2023-02-11T07:58:01.869Z,5.80
2023-02-11T08:02:03.978Z,5.90
2023-02-11T08:06:07.899Z,5.90
2023-02-11T08:10:09.731Z,5.90
2023-02-11T08:14:12.305Z,5.90
2023-02-11T08:18:14.082Z,5.90
2023-02-11T08:22:15.741Z,5.90
2023-02-11T08:26:23.374Z,6.00
2023-02-11T08:30:27.196Z,6.00
2023-02-11T08:34:29.214Z,6.00
2023-02-11T08:38:30.870Z,6.00
2023-02-11T08:42:32.704Z,6.10
2023-02-11T08:46:34.642Z,6.10
2023-02-11T08:50:39.209Z,6.20
2023-02-11T08:54:41.017Z,6.20
2023-02-11T08:58:43.333Z,6.30
2023-02-11T09:02:45.035Z,6.50
2023-02-11T09:06:46.817Z,6.40
2023-02-11T09:10:48.987Z,6.40
2023-02-11T09:14:50.918Z,6.40
2023-02-11T09:18:53.645Z,6.40
2023-02-11T09:22:58.380Z,6.50
2023-02-11T09:27:00.186Z,6.60
2023-02-11T09:31:09.671Z,6.60
2023-02-11T09:35:11.472Z,6.60
2023-02-11T09:39:17.066Z,6.70
2023-02-11T09:43:22.576Z,6.70
2023-02-11T09:47:30.304Z,6.70
2023-02-11T09:51:54.325Z,6.90
2023-02-11T09:55:59.956Z,7.00
2023-02-11T10:00:03.672Z,6.90
2023-02-11T10:04:22.977Z,6.90
2023-02-11T10:08:30.870Z,7.00
2023-02-11T10:13:14.062Z,7.00
2023-02-11T10:17:27.841Z,7.10
2023-02-11T10:21:43.645Z,7.10
2023-02-11T10:25:50.648Z,7.10
2023-02-11T10:30:08.456Z,7.10
2023-02-11T10:34:11.732Z,7.10
2023-02-11T10:38:13.418Z,7.20
2023-02-11T10:42:15.241Z,7.20
2023-02-11T10:46:20.935Z,7.10
2023-02-11T10:50:29.851Z,7.20
2023-02-11T10:54:31.520Z,7.10
2023-02-11T10:58:54.365Z,7.20
2023-02-11T11:02:58.967Z,7.20
2023-02-11T11:07:18.969Z,7.30
2023-02-11T11:11:23.550Z,7.40
2023-02-11T11:15:28.189Z,7.30
2023-02-11T11:19:30.231Z,7.30
2023-02-11T11:23:32.374Z,7.40
2023-02-11T11:27:34.109Z,7.30
2023-02-11T11:31:54.390Z,7.20
2023-02-11T11:36:00.864Z,7.30
2023-02-11T11:40:11.135Z,7.30
2023-02-11T11:44:27.652Z,7.40
2023-02-11T11:48:37.099Z,7.40
2023-02-11T11:52:41.932Z,7.40
2023-02-11T11:56:55.571Z,7.50
2023-02-11T12:01:19.262Z,7.50
2023-02-11T12:05:45.506Z,7.60
2023-02-11T12:10:08.523Z,7.60
2023-02-11T12:14:24.787Z,7.70
2023-02-11T12:18:50.750Z,7.70
2023-02-11T12:23:17.148Z,7.80
2023-02-11T12:27:32.942Z,7.80
2023-02-11T12:32:16.491Z,7.90
2023-02-11T12:36:34.540Z,8.00
2023-02-11T12:40:46.844Z,8.00
2023-02-11T12:45:10.980Z,8.10
2023-02-11T12:49:46.567Z,7.90
2023-02-11T12:54:14.539Z,8.00
2023-02-11T12:58:29.700Z,8.00
2023-02-11T13:03:01.961Z,8.00
2023-02-11T13:07:11.535Z,8.00
2023-02-11T13:11:26.805Z,8.00
2023-02-11T13:15:30.174Z,8.00
2023-02-11T13:19:42.468Z,8.00
2023-02-11T13:24:05.349Z,8.00
2023-02-11T13:28:20.814Z,8.10
2023-02-11T13:32:22.534Z,8.10
2023-02-11T13:36:26.595Z,8.10
2023-02-11T13:40:33.066Z,8.20
2023-02-11T13:44:35.102Z,8.30
2023-02-11T13:48:40.021Z,8.30
2023-02-11T13:52:42.650Z,8.30
2023-02-11T13:56:46.178Z,8.40
2023-02-11T14:00:50.881Z,8.40
2023-02-11T14:05:23.702Z,8.40
2023-02-11T14:09:38.596Z,8.40
2023-02-11T14:13:48.960Z,8.40
2023-02-11T14:17:52.335Z,8.50
2023-02-11T14:22:06.249Z,8.50
2023-02-11T14:26:42.394Z,8.50
2023-02-11T14:31:10.348Z,8.50
2023-02-11T14:35:39.517Z,8.40
2023-02-11T14:39:52.447Z,8.50
2023-02-11T14:43:58.458Z,8.60
2023-02-11T14:48:08.000Z,8.70
2023-02-11T14:52:29.842Z,8.80
2023-02-11T14:56:34.252Z,8.80
2023-02-11T15:00:35.961Z,8.80
2023-02-11T15:04:39.858Z,8.80
2023-02-11T15:08:46.766Z,9.00
2023-02-11T15:12:49.899Z,9.00
2023-02-11T15:16:54.137Z,8.90
2023-02-11T15:20:55.944Z,9.00
2023-02-11T15:24:59.190Z,9.00
2023-02-11T15:29:00.922Z,9.00
2023-02-11T15:33:05.447Z,9.00
2023-02-11T15:37:07.456Z,8.90
2023-02-11T15:41:37.428Z,8.90
2023-02-11T15:45:54.185Z,8.90
2023-02-11T15:49:55.916Z,8.80
2023-02-11T15:54:00.206Z,8.80
2023-02-11T15:58:02.178Z,8.80
2023-02-11T16:02:34.119Z,8.80
2023-02-11T16:06:41.093Z,8.60
2023-02-11T16:11:03.169Z,8.40
2023-02-11T16:15:33.103Z,8.40
2023-02-11T16:19:36.438Z,8.40
2023-02-11T16:23:44.055Z,8.30
2023-02-11T16:27:49.825Z,8.40
2023-02-11T16:31:53.534Z,8.30
2023-02-11T16:35:55.487Z,8.20
2023-02-11T16:39:58.117Z,8.30
2023-02-11T16:43:59.809Z,8.30
2023-02-11T16:48:02.557Z,8.30
2023-02-11T16:52:08.178Z,8.20
2023-02-11T16:56:17.354Z,8.30
2023-02-11T17:00:19.609Z,8.20
2023-02-11T17:04:28.018Z,8.20
2023-02-11T17:08:29.875Z,8.10
2023-02-11T17:12:31.558Z,8.00
2023-02-11T17:16:33.728Z,8.10
2023-02-11T17:20:35.436Z,8.10
2023-02-11T17:24:37.633Z,8.00
2023-02-11T17:28:39.383Z,8.00
2023-02-11T17:32:41.087Z,8.00
2023-02-11T17:36:42.776Z,8.10
2023-02-11T17:40:44.438Z,8.00
2023-02-11T17:44:46.394Z,7.90
2023-02-11T17:48:48.139Z,8.00
2023-02-11T17:52:49.835Z,8.00
2023-02-11T17:56:55.100Z,7.90
2023-02-11T18:00:59.158Z,7.90
2023-02-11T18:05:00.970Z,7.90
2023-02-11T18:09:04.234Z,7.80
2023-02-11T18:13:05.965Z,7.90
2023-02-11T18:17:07.780Z,7.80
2023-02-11T18:21:14.480Z,7.90
2023-02-11T18:25:17.326Z,7.90
2023-02-11T18:29:19.269Z,7.90
2023-02-11T18:33:20.936Z,7.70
2023-02-11T18:37:22.646Z,7.70
2023-02-11T18:41:24.337Z,7.70
2023-02-11T18:45:28.998Z,7.80
2023-02-11T18:49:30.790Z,7.80
2023-02-11T18:53:32.460Z,7.70
2023-02-11T18:57:34.207Z,7.70
2023-02-11T19:01:36.056Z,7.70
2023-02-11T19:05:45.740Z,7.80
2023-02-11T19:09:48.463Z,7.70
2023-02-11T19:13:51.232Z,7.60
2023-02-11T19:17:53.186Z,7.60
2023-02-11T19:21:55.333Z,7.60
2023-02-11T19:25:57.206Z,7.60
2023-02-11T19:29:58.901Z,7.60
2023-02-11T19:34:01.722Z,7.60
2023-02-11T19:38:04.863Z,7.60
2023-02-11T19:42:06.640Z,7.50
2023-02-11T19:46:08.497Z,7.50
2023-02-11T19:50:10.727Z,7.60
2023-02-11T19:54:12.410Z,7.50
2023-02-11T19:58:16.012Z,7.60
2023-02-11T20:02:18.667Z,7.50
2023-02-11T20:06:23.628Z,7.50
2023-02-11T20:10:25.750Z,7.50
2023-02-11T20:14:28.146Z,7.50
2023-02-11T20:18:29.943Z,7.40
2023-02-11T20:22:31.674Z,7.40
2023-02-11T20:26:34.774Z,7.40
2023-02-11T20:30:36.525Z,7.40
2023-02-11T20:34:38.179Z,7.50
2023-02-11T20:38:40.474Z,7.50
2023-02-11T20:42:42.199Z,7.40
2023-02-11T20:46:48.620Z,7.40
2023-02-11T20:50:50.266Z,7.30
2023-02-11T20:54:51.952Z,7.40
2023-02-11T20:58:53.630Z,7.30
2023-02-11T21:02:55.400Z,7.20
2023-02-11T21:06:59.731Z,7.20
2023-02-11T21:11:01.901Z,7.20
2023-02-11T21:15:05.420Z,7.20
2023-02-11T21:19:07.804Z,7.10
2023-02-11T21:23:09.516Z,7.20
2023-02-11T21:27:11.194Z,7.10
2023-02-11T21:31:22.950Z,7.10
2023-02-11T21:35:25.789Z,7.20
2023-02-11T21:39:27.479Z,7.20
2023-02-11T21:43:29.162Z,7.20
2023-02-11T21:47:31.546Z,7.10
2023-02-11T21:51:33.263Z,7.00
2023-02-11T21:55:36.002Z,7.10
2023-02-11T21:59:37.740Z,7.00
2023-02-11T22:03:39.680Z,7.20
2023-02-11T22:07:41.384Z,7.10
2023-02-11T22:11:43.145Z,7.20
2023-02-11T22:15:44.882Z,7.10
2023-02-11T22:19:46.590Z,7.20
2023-02-11T22:23:49.215Z,7.10
2023-02-11T22:27:50.903Z,7.10
2023-02-11T22:31:52.620Z,7.00
2023-02-11T22:36:02.743Z,7.00
2023-02-11T22:40:04.914Z,7.10
2023-02-11T22:44:07.005Z,7.00
2023-02-11T22:48:08.728Z,7.00
2023-02-11T22:52:10.440Z,7.00
2023-02-11T22:56:15.648Z,7.10
2023-02-11T23:00:19.213Z,7.10
2023-02-11T23:04:20.948Z,7.00
2023-02-11T23:08:22.786Z,7.00
2023-02-11T23:12:24.540Z,6.90
2023-02-11T23:16:29.252Z,6.80
2023-02-11T23:20:31.028Z,6.80
2023-02-11T23:24:32.845Z,6.80
2023-02-11T23:28:34.549Z,6.80
2023-02-11T23:32:39.120Z,6.70
2023-02-11T23:36:40.810Z,6.70
2023-02-11T23:40:42.782Z,6.60
2023-02-11T23:44:44.432Z,6.70
2023-02-11T23:48:46.101Z,6.60
2023-02-11T23:52:48.041Z,6.60
2023-02-11T23:56:49.734Z,6.50
